createdAt,value
2018-12-20T00:00:43.787Z,4.20
2018-12-20T00:03:11.238Z,4.10
2018-12-20T00:05:38.706Z,4.10
2018-12-20T00:08:06.178Z,4.10
2018-12-20T00:10:33.701Z,4.10
2018-12-20T00:13:01.408Z,4.10
2018-12-20T00:15:28.917Z,4.10
2018-12-20T00:17:56.456Z,4.10
2018-12-20T00:20:23.937Z,4.10
2018-12-20T00:22:51.461Z,4.10
2018-12-20T00:25:18.980Z,4.10
2018-12-20T00:27:46.508Z,4.10
2018-12-20T00:30:13.974Z,4.10
2018-12-20T00:32:41.531Z,4.10
2018-12-20T00:35:08.970Z,4.10
2018-12-20T00:37:36.541Z,4.20
2018-12-20T00:40:06.634Z,4.20
2018-12-20T00:42:34.253Z,4.10
2018-12-20T00:45:02.662Z,4.10
2018-12-20T00:47:30.197Z,4.10
2018-12-20T00:49:57.669Z,4.10
2018-12-20T00:52:25.213Z,4.00
2018-12-20T00:54:52.645Z,4.00
2018-12-20T00:57:20.213Z,4.00
2018-12-20T00:59:47.722Z,4.00
2018-12-20T01:02:15.297Z,4.00
2018-12-20T01:04:42.808Z,4.00
2018-12-20T01:07:10.316Z,4.00
2018-12-20T01:09:38.230Z,4.00
2018-12-20T01:12:05.757Z,4.00
2018-12-20T01:14:33.220Z,3.90
2018-12-20T01:17:00.683Z,4.00
2018-12-20T01:19:28.190Z,4.00
2018-12-20T01:21:55.743Z,3.90
2018-12-20T01:24:23.207Z,3.90
2018-12-20T01:26:50.613Z,3.90
2018-12-20T01:29:18.520Z,3.90
2018-12-20T01:31:46.032Z,4.00
2018-12-20T01:34:13.520Z,4.00
2018-12-20T01:36:40.940Z,4.00
2018-12-20T01:39:08.560Z,4.00
2018-12-20T01:41:36.108Z,4.00
2018-12-20T01:44:03.536Z,4.00
2018-12-20T01:46:31.045Z,4.00
2018-12-20T01:48:58.599Z,4.00
2018-12-20T01:51:26.114Z,4.00
2018-12-20T01:53:53.596Z,4.00
2018-12-20T01:56:21.025Z,4.00
2018-12-20T01:58:48.587Z,4.10
2018-12-20T02:01:16.146Z,4.10
2018-12-20T02:03:43.795Z,4.10
2018-12-20T02:06:11.386Z,4.10
2018-12-20T02:08:38.830Z,4.10
2018-12-20T02:11:06.398Z,4.10
2018-12-20T02:13:33.971Z,4.10
2018-12-20T02:16:01.542Z,4.00
2018-12-20T02:18:29.017Z,4.10
2018-12-20T02:20:56.686Z,4.00
2018-12-20T02:23:24.132Z,4.00
2018-12-20T02:25:51.557Z,4.10
2018-12-20T02:28:19.075Z,4.10
2018-12-20T02:30:46.727Z,4.10
2018-12-20T02:33:14.251Z,4.10
2018-12-20T02:35:41.733Z,4.10
2018-12-20T02:38:09.666Z,4.10
2018-12-20T02:40:37.181Z,4.10
2018-12-20T02:43:04.807Z,4.10
2018-12-20T02:45:32.392Z,4.00
2018-12-20T02:47:59.809Z,4.00
2018-12-20T02:50:27.291Z,4.00
2018-12-20T02:52:54.881Z,4.00
2018-12-20T02:55:22.558Z,4.00
2018-12-20T02:57:50.218Z,4.00
2018-12-20T03:00:17.700Z,4.00
2018-12-20T03:02:45.212Z,4.00
2018-12-20T03:05:12.677Z,4.00
2018-12-20T03:07:40.531Z,4.00
2018-12-20T03:10:08.162Z,4.00
2018-12-20T03:12:35.603Z,4.00
2018-12-20T03:15:03.360Z,4.00
2018-12-20T03:17:30.921Z,4.00
2018-12-20T03:19:58.482Z,4.00
2018-12-20T03:22:26.155Z,4.00
2018-12-20T03:24:54.176Z,4.00
2018-12-20T03:27:22.036Z,4.00
2018-12-20T03:29:49.653Z,4.00
2018-12-20T03:32:17.119Z,3.90
2018-12-20T03:34:44.666Z,3.90
2018-12-20T03:37:12.324Z,3.90
2018-12-20T03:39:40.539Z,3.90
2018-12-20T03:42:08.988Z,3.90
2018-12-20T03:44:36.813Z,3.90
2018-12-20T03:47:04.596Z,3.80
2018-12-20T03:49:32.152Z,3.90
2018-12-20T03:51:59.957Z,3.90
2018-12-20T03:54:27.564Z,3.90
2018-12-20T03:56:55.921Z,3.90
2018-12-20T03:59:23.444Z,3.90
2018-12-20T04:01:50.950Z,3.80
2018-12-20T04:04:18.604Z,3.80
2018-12-20T04:06:46.151Z,3.80
2018-12-20T04:09:13.811Z,3.90
2018-12-20T04:11:41.622Z,3.90
2018-12-20T04:14:09.355Z,3.90
2018-12-20T04:16:37.556Z,3.90
2018-12-20T04:19:05.368Z,3.90
2018-12-20T04:21:32.938Z,3.90
2018-12-20T04:24:00.997Z,3.90
2018-12-20T04:26:29.023Z,3.90
2018-12-20T04:28:56.771Z,3.90
2018-12-20T04:31:24.573Z,3.90
2018-12-20T04:33:52.075Z,3.90
2018-12-20T04:36:20.081Z,3.90
2018-12-20T04:38:47.519Z,3.90
2018-12-20T04:41:15.181Z,3.90
2018-12-20T04:43:43.191Z,3.90
2018-12-20T04:46:10.790Z,3.90
2018-12-20T04:48:38.435Z,3.90
2018-12-20T04:51:06.222Z,3.90
2018-12-20T04:53:33.860Z,3.90
2018-12-20T04:56:01.636Z,3.90
2018-12-20T04:58:29.429Z,3.90
2018-12-20T05:00:57.132Z,3.90
2018-12-20T05:03:25.526Z,4.00
2018-12-20T05:05:53.258Z,4.00
2018-12-20T05:08:20.859Z,3.90
2018-12-20T05:10:48.353Z,3.90
2018-12-20T05:13:16.056Z,3.90
2018-12-20T05:15:43.815Z,3.90
2018-12-20T05:18:11.301Z,3.90
2018-12-20T05:20:39.902Z,3.90
2018-12-20T05:23:07.568Z,3.90
2018-12-20T05:25:35.229Z,3.90
2018-12-20T05:28:02.784Z,3.90
2018-12-20T05:30:30.338Z,3.90
2018-12-20T05:32:58.022Z,3.90
2018-12-20T05:35:25.661Z,3.90
2018-12-20T05:37:53.127Z,3.90
2018-12-20T05:40:20.597Z,3.80
2018-12-20T05:42:48.151Z,3.90
2018-12-20T05:45:16.210Z,3.90
2018-12-20T05:47:43.795Z,3.90
2018-12-20T05:50:11.247Z,3.90
2018-12-20T05:52:38.728Z,3.80
2018-12-20T05:55:06.460Z,3.80
2018-12-20T05:57:34.728Z,3.90
2018-12-20T06:00:02.180Z,3.90
2018-12-20T06:02:29.636Z,3.90
2018-12-20T06:04:57.147Z,3.90
2018-12-20T06:07:24.657Z,3.90
2018-12-20T06:09:52.217Z,3.90
2018-12-20T06:12:19.875Z,3.90
2018-12-20T06:14:47.410Z,3.90
2018-12-20T06:17:14.997Z,3.90
2018-12-20T06:19:42.688Z,3.90
2018-12-20T06:22:10.743Z,3.90
2018-12-20T06:24:38.153Z,3.90
2018-12-20T06:27:05.746Z,3.90
2018-12-20T06:29:33.309Z,3.90
2018-12-20T06:32:00.845Z,3.90
2018-12-20T06:34:28.335Z,3.90
2018-12-20T06:36:55.888Z,3.90
2018-12-20T06:39:23.292Z,3.90
2018-12-20T06:41:50.821Z,3.90
2018-12-20T06:44:18.236Z,3.90
2018-12-20T06:46:50.448Z,3.90
2018-12-20T06:49:17.904Z,3.90
2018-12-20T06:51:45.389Z,3.90
2018-12-20T06:54:12.797Z,3.90
2018-12-20T06:56:40.764Z,3.90
2018-12-20T06:59:08.252Z,3.90
2018-12-20T07:01:35.687Z,3.90
2018-12-20T07:04:03.109Z,3.90
2018-12-20T07:06:30.509Z,3.80
2018-12-20T07:08:57.925Z,3.80
2018-12-20T07:11:25.517Z,3.80
2018-12-20T07:13:52.982Z,3.80
2018-12-20T07:16:20.440Z,3.80
2018-12-20T07:18:47.989Z,3.80
2018-12-20T07:21:15.376Z,3.80
2018-12-20T07:23:42.800Z,3.70
2018-12-20T07:26:10.187Z,3.70
2018-12-20T07:28:37.621Z,3.70
2018-12-20T07:31:05.103Z,3.70
2018-12-20T07:33:32.676Z,3.60
2018-12-20T07:36:00.336Z,3.60
2018-12-20T07:38:27.777Z,3.60
2018-12-20T07:40:55.389Z,3.60
2018-12-20T07:43:22.804Z,3.50
2018-12-20T07:45:50.252Z,3.60
2018-12-20T07:48:17.794Z,3.50
2018-12-20T07:50:45.304Z,3.50
2018-12-20T07:53:12.716Z,3.50
2018-12-20T07:55:40.129Z,3.60
2018-12-20T07:58:11.656Z,3.60
2018-12-20T08:00:39.100Z,3.60
2018-12-20T08:03:06.546Z,3.60
2018-12-20T08:05:34.009Z,3.60
2018-12-20T08:08:01.462Z,3.60
2018-12-20T08:10:29.947Z,3.70
2018-12-20T08:12:57.401Z,3.70
2018-12-20T08:15:24.856Z,3.70
2018-12-20T08:17:52.302Z,3.70
2018-12-20T08:20:19.784Z,3.70
2018-12-20T08:22:47.246Z,3.80
2018-12-20T08:25:14.712Z,3.80
2018-12-20T08:27:42.148Z,3.80
2018-12-20T08:30:09.696Z,3.80
2018-12-20T08:32:37.161Z,3.90
2018-12-20T08:35:04.686Z,3.90
2018-12-20T08:37:32.085Z,4.00
2018-12-20T08:39:59.560Z,4.00
2018-12-20T08:42:27.013Z,4.10
2018-12-20T08:44:54.470Z,4.10
2018-12-20T08:47:22.003Z,4.10
2018-12-20T08:49:49.498Z,4.20
2018-12-20T08:52:16.924Z,4.20
2018-12-20T08:54:44.717Z,4.20
2018-12-20T08:57:12.182Z,4.20
2018-12-20T08:59:39.937Z,4.20
2018-12-20T09:02:07.330Z,4.20
2018-12-20T09:04:34.844Z,4.30
2018-12-20T09:07:02.354Z,4.30
2018-12-20T09:09:29.872Z,4.30
2018-12-20T09:11:57.374Z,4.30
2018-12-20T09:14:24.996Z,4.40
2018-12-20T09:16:52.427Z,4.30
2018-12-20T09:19:19.838Z,4.30
2018-12-20T09:21:47.350Z,4.30
2018-12-20T09:24:14.936Z,4.40
2018-12-20T09:26:42.848Z,4.40
2018-12-20T09:29:10.661Z,4.50
2018-12-20T09:31:38.114Z,4.50
2018-12-20T09:34:05.554Z,4.60
2018-12-20T09:36:33.000Z,4.60
2018-12-20T09:39:00.509Z,4.70
2018-12-20T09:41:27.936Z,4.60
2018-12-20T09:43:55.324Z,4.70
2018-12-20T09:46:22.746Z,4.70
2018-12-20T09:48:50.187Z,4.80
2018-12-20T09:51:17.615Z,4.80
2018-12-20T09:53:45.008Z,4.80
2018-12-20T09:56:12.487Z,4.80
2018-12-20T09:58:39.929Z,4.90
2018-12-20T10:01:07.337Z,4.90
2018-12-20T10:03:35.242Z,5.00
2018-12-20T10:06:03.384Z,5.00
2018-12-20T10:08:30.874Z,5.10
2018-12-20T10:10:58.445Z,5.20
2018-12-20T10:13:25.888Z,5.30
2018-12-20T10:15:53.381Z,5.40
2018-12-20T10:18:20.809Z,5.50
2018-12-20T10:20:48.377Z,5.50
2018-12-20T10:23:16.473Z,5.60
2018-12-20T10:25:43.883Z,5.60
2018-12-20T10:28:11.905Z,5.70
2018-12-20T10:30:39.488Z,5.80
2018-12-20T10:33:06.977Z,5.90
2018-12-20T10:35:34.549Z,5.90
2018-12-20T10:38:02.099Z,5.90
2018-12-20T10:40:29.614Z,6.00
2018-12-20T10:42:57.005Z,6.00
2018-12-20T10:45:24.504Z,5.90
2018-12-20T10:47:51.966Z,5.90
2018-12-20T10:50:19.442Z,5.90
2018-12-20T10:52:46.862Z,5.90
2018-12-20T10:55:14.275Z,6.00
2018-12-20T10:57:41.681Z,6.00
2018-12-20T11:00:09.113Z,6.10
2018-12-20T11:02:42.144Z,6.10
2018-12-20T11:05:15.086Z,6.10
2018-12-20T11:07:48.204Z,6.10
2018-12-20T11:10:23.104Z,6.00
2018-12-20T11:12:50.497Z,6.00
2018-12-20T11:15:17.926Z,6.00
2018-12-20T11:17:45.325Z,6.10
2018-12-20T11:20:12.765Z,6.20
2018-12-20T11:22:40.190Z,6.20
2018-12-20T11:25:07.637Z,6.20
2018-12-20T11:27:35.146Z,6.20
2018-12-20T11:30:02.626Z,6.10
2018-12-20T11:32:30.110Z,6.10
2018-12-20T11:34:57.606Z,6.20
2018-12-20T11:37:25.125Z,6.20
2018-12-20T11:39:59.477Z,6.20
2018-12-20T11:42:22.050Z,6.20
2018-12-20T11:44:49.493Z,6.20
2018-12-20T11:47:22.281Z,6.20
2018-12-20T11:49:49.729Z,6.20
2018-12-20T11:52:17.205Z,6.30
2018-12-20T11:54:44.645Z,6.30
2018-12-20T11:57:12.150Z,6.30
2018-12-20T11:59:39.993Z,6.30
2018-12-20T12:02:07.580Z,6.30
2018-12-20T12:04:35.008Z,6.20
2018-12-20T12:07:02.454Z,6.20
2018-12-20T12:09:29.894Z,6.30
2018-12-20T12:11:57.324Z,6.30
2018-12-20T12:14:24.826Z,6.20
2018-12-20T12:16:52.327Z,6.20
2018-12-20T12:19:19.749Z,6.20
2018-12-20T12:21:49.449Z,6.20
2018-12-20T12:24:16.833Z,6.30
2018-12-20T12:26:44.354Z,6.30
2018-12-20T12:29:11.809Z,6.30
2018-12-20T12:31:39.305Z,6.40
2018-12-20T12:34:06.729Z,6.50
2018-12-20T12:36:34.287Z,6.50
2018-12-20T12:39:01.670Z,6.50
2018-12-20T12:41:29.155Z,6.60
2018-12-20T12:43:56.583Z,6.70
2018-12-20T12:46:24.029Z,6.70
2018-12-20T12:48:51.459Z,6.80
2018-12-20T12:51:18.930Z,6.80
2018-12-20T12:53:46.347Z,6.90
2018-12-20T12:56:13.947Z,6.90
2018-12-20T12:58:41.538Z,6.90
2018-12-20T13:01:09.894Z,6.80
2018-12-20T13:03:37.592Z,6.80
2018-12-20T13:06:05.052Z,6.80
2018-12-20T13:08:32.564Z,6.80
2018-12-20T13:11:00.122Z,6.80
2018-12-20T13:13:27.690Z,6.80
2018-12-20T13:15:55.450Z,6.80
2018-12-20T13:18:22.974Z,6.70
2018-12-20T13:20:50.369Z,6.60
2018-12-20T13:23:17.822Z,6.50
2018-12-20T13:25:45.281Z,6.40
2018-12-20T13:28:12.708Z,6.30
2018-12-20T13:30:40.226Z,6.20
2018-12-20T13:33:07.645Z,6.20
2018-12-20T13:35:35.134Z,6.10
2018-12-20T13:38:02.677Z,6.00
2018-12-20T13:40:30.092Z,5.90
2018-12-20T13:42:57.697Z,5.90
2018-12-20T13:45:25.154Z,5.80
2018-12-20T13:47:53.087Z,5.80
2018-12-20T13:50:20.573Z,5.80
2018-12-20T13:52:48.134Z,5.80
2018-12-20T13:55:16.401Z,5.80
2018-12-20T13:57:43.970Z,5.90
2018-12-20T14:00:14.817Z,5.90
2018-12-20T14:02:42.771Z,5.80
2018-12-20T14:05:10.274Z,5.80
2018-12-20T14:07:37.729Z,5.70
2018-12-20T14:10:06.076Z,5.70
2018-12-20T14:12:33.474Z,5.70
2018-12-20T14:15:00.986Z,5.70
2018-12-20T14:17:28.492Z,5.70
2018-12-20T14:19:55.970Z,5.70
2018-12-20T14:22:23.394Z,5.60
2018-12-20T14:24:50.919Z,5.70
2018-12-20T14:27:18.350Z,5.70
2018-12-20T14:29:45.914Z,5.70
2018-12-20T14:32:13.435Z,5.70
2018-12-20T14:34:41.182Z,5.70
2018-12-20T14:37:08.653Z,5.60
2018-12-20T14:39:36.127Z,5.60
2018-12-20T14:42:03.513Z,5.60
2018-12-20T14:44:30.982Z,5.60
2018-12-20T14:46:58.456Z,5.60
2018-12-20T14:49:25.970Z,5.50
2018-12-20T14:51:53.384Z,5.50
2018-12-20T14:54:20.843Z,5.40
2018-12-20T14:56:48.266Z,5.40
2018-12-20T14:59:15.814Z,5.30
2018-12-20T15:01:43.297Z,5.30
2018-12-20T15:04:10.749Z,5.30
2018-12-20T15:06:38.602Z,5.20
2018-12-20T15:09:06.736Z,5.10
2018-12-20T15:11:34.130Z,5.00
2018-12-20T15:14:01.675Z,4.90
2018-12-20T15:16:29.175Z,4.80
2018-12-20T15:18:56.629Z,4.70
2018-12-20T15:21:24.105Z,4.60
2018-12-20T15:23:51.750Z,4.50
2018-12-20T15:26:19.224Z,4.50
2018-12-20T15:28:46.684Z,4.50
2018-12-20T15:31:14.626Z,4.50
2018-12-20T15:33:42.102Z,4.60
2018-12-20T15:36:09.644Z,4.60
2018-12-20T15:38:37.074Z,4.60
2018-12-20T15:41:04.586Z,4.60
2018-12-20T15:43:32.202Z,4.60
2018-12-20T15:45:59.731Z,4.60
2018-12-20T15:48:27.141Z,4.60
2018-12-20T15:50:54.646Z,4.60
2018-12-20T15:53:22.091Z,4.60
2018-12-20T15:55:49.663Z,4.60
2018-12-20T15:58:17.110Z,4.60
2018-12-20T16:00:44.593Z,4.70
2018-12-20T16:03:11.992Z,4.70
2018-12-20T16:05:39.453Z,4.70
2018-12-20T16:08:07.727Z,4.70
2018-12-20T16:10:35.689Z,4.70
2018-12-20T16:13:03.174Z,4.60
2018-12-20T16:15:30.717Z,4.60
2018-12-20T16:17:59.006Z,4.60
2018-12-20T16:20:26.544Z,4.70
2018-12-20T16:22:54.146Z,4.70
2018-12-20T16:25:21.581Z,4.70
2018-12-20T16:27:49.945Z,4.70
2018-12-20T16:30:17.513Z,4.70
2018-12-20T16:32:45.082Z,4.70
2018-12-20T16:35:12.624Z,4.80
2018-12-20T16:37:40.124Z,4.80
2018-12-20T16:40:07.610Z,4.80
2018-12-20T16:42:35.126Z,4.80
2018-12-20T16:45:02.634Z,4.80
2018-12-20T16:47:30.230Z,4.80
2018-12-20T16:49:57.750Z,4.90
2018-12-20T16:52:25.257Z,4.90
2018-12-20T16:54:52.802Z,4.90
2018-12-20T16:57:20.362Z,5.00
2018-12-20T16:59:47.883Z,5.00
2018-12-20T17:02:15.397Z,5.10
2018-12-20T17:04:42.946Z,5.20
2018-12-20T17:07:10.398Z,5.30
2018-12-20T17:09:38.033Z,5.30
2018-12-20T17:12:05.578Z,5.40
2018-12-20T17:14:33.105Z,5.40
2018-12-20T17:17:00.598Z,5.40
2018-12-20T17:19:28.110Z,5.40
2018-12-20T17:21:55.577Z,5.50
2018-12-20T17:24:23.126Z,5.50
2018-12-20T17:26:50.746Z,5.50
2018-12-20T17:29:18.181Z,5.50
2018-12-20T17:31:45.652Z,5.40
2018-12-20T17:34:14.213Z,5.40
2018-12-20T17:36:41.838Z,5.40
2018-12-20T17:39:09.549Z,5.40
2018-12-20T17:41:37.033Z,5.40
2018-12-20T17:44:05.283Z,5.40
2018-12-20T17:46:32.802Z,5.40
2018-12-20T17:49:00.457Z,5.40
2018-12-20T17:51:27.973Z,5.40
2018-12-20T17:53:55.518Z,5.40
2018-12-20T17:56:23.035Z,5.40
2018-12-20T17:58:50.490Z,5.40
2018-12-20T18:01:18.012Z,5.40
2018-12-20T18:03:45.422Z,5.40
2018-12-20T18:06:12.937Z,5.40
2018-12-20T18:08:40.457Z,5.40
2018-12-20T18:11:07.999Z,5.40
2018-12-20T18:13:35.412Z,5.50
2018-12-20T18:16:03.027Z,5.50
2018-12-20T18:18:30.482Z,5.50
2018-12-20T18:20:58.022Z,5.50
2018-12-20T18:23:25.809Z,5.50
2018-12-20T18:25:53.352Z,5.50
2018-12-20T18:28:20.938Z,5.50
2018-12-20T18:30:48.462Z,5.50
2018-12-20T18:33:16.570Z,5.50
2018-12-20T18:35:44.106Z,5.50
2018-12-20T18:38:11.514Z,5.60
2018-12-20T18:40:39.652Z,5.60
2018-12-20T18:43:07.201Z,5.60
2018-12-20T18:45:34.606Z,5.60
2018-12-20T18:48:02.213Z,5.60
2018-12-20T18:50:29.626Z,5.60
2018-12-20T18:52:57.188Z,5.60
2018-12-20T18:55:24.898Z,5.60
2018-12-20T18:57:52.555Z,5.60
2018-12-20T19:00:20.018Z,5.60
2018-12-20T19:02:47.565Z,5.60
2018-12-20T19:05:15.133Z,5.60
2018-12-20T19:07:42.685Z,5.60
2018-12-20T19:10:10.097Z,5.60
2018-12-20T19:12:37.544Z,5.60
2018-12-20T19:15:06.446Z,5.60
2018-12-20T19:17:33.928Z,5.60
2018-12-20T19:20:01.548Z,5.60
2018-12-20T19:22:29.618Z,5.60
2018-12-20T19:24:58.288Z,5.60
2018-12-20T19:27:25.838Z,5.60
2018-12-20T19:29:53.337Z,5.70
2018-12-20T19:32:20.844Z,5.70
2018-12-20T19:34:48.405Z,5.70
2018-12-20T19:37:15.858Z,5.70
2018-12-20T19:39:45.360Z,5.70
2018-12-20T19:42:15.648Z,5.70
2018-12-20T19:44:43.080Z,5.70
2018-12-20T19:47:10.618Z,5.80
2018-12-20T19:49:38.137Z,5.80
2018-12-20T19:52:05.693Z,5.90
2018-12-20T19:54:33.189Z,5.90
2018-12-20T19:57:00.861Z,5.90
2018-12-20T19:59:28.262Z,5.90
2018-12-20T20:02:04.294Z,5.80
2018-12-20T20:04:25.289Z,5.80
2018-12-20T20:06:52.938Z,5.80
2018-12-20T20:09:20.740Z,5.80
2018-12-20T20:11:48.261Z,5.90
2018-12-20T20:14:16.246Z,5.90
2018-12-20T20:16:50.587Z,5.90
2018-12-20T20:19:14.120Z,5.90
2018-12-20T20:21:41.630Z,5.80
2018-12-20T20:24:09.058Z,5.80
2018-12-20T20:26:38.002Z,5.80
2018-12-20T20:29:05.694Z,5.80
2018-12-20T20:31:33.168Z,5.70
2018-12-20T20:34:00.709Z,5.80
2018-12-20T20:36:28.115Z,5.80
2018-12-20T20:39:01.912Z,5.80
2018-12-20T20:41:25.035Z,5.80
2018-12-20T20:43:52.486Z,5.80
2018-12-20T20:46:20.062Z,5.80
2018-12-20T20:48:47.550Z,5.90
2018-12-20T20:51:15.598Z,5.90
2018-12-20T20:53:43.133Z,5.80
2018-12-20T20:56:11.012Z,5.80
2018-12-20T20:58:38.602Z,5.80
2018-12-20T21:01:06.020Z,5.80
2018-12-20T21:03:33.531Z,5.80
2018-12-20T21:06:00.944Z,5.80
2018-12-20T21:08:28.498Z,5.80
2018-12-20T21:10:56.041Z,5.80
2018-12-20T21:13:23.518Z,5.70
2018-12-20T21:15:51.015Z,5.70
2018-12-20T21:18:18.510Z,5.60
2018-12-20T21:20:46.078Z,5.60
2018-12-20T21:23:13.531Z,5.60
2018-12-20T21:25:40.933Z,5.60
2018-12-20T21:28:08.476Z,5.60
2018-12-20T21:30:35.884Z,5.60
2018-12-20T21:33:03.381Z,5.70
2018-12-20T21:35:31.492Z,5.70
2018-12-20T21:37:58.943Z,5.70
2018-12-20T21:40:26.374Z,5.60
2018-12-20T21:42:53.881Z,5.60
2018-12-20T21:45:22.984Z,5.50
2018-12-20T21:47:50.589Z,5.50
2018-12-20T21:50:18.053Z,5.50
2018-12-20T21:52:45.605Z,5.60
2018-12-20T21:55:13.078Z,5.70
2018-12-20T21:57:40.587Z,5.70
2018-12-20T22:00:09.498Z,5.70
2018-12-20T22:02:37.234Z,5.80
2018-12-20T22:05:04.828Z,5.90
2018-12-20T22:07:32.298Z,5.90
2018-12-20T22:09:59.793Z,5.90
2018-12-20T22:12:27.223Z,5.90
2018-12-20T22:14:54.768Z,5.90
2018-12-20T22:17:22.645Z,5.90
2018-12-20T22:19:58.410Z,5.90
2018-12-20T22:22:19.702Z,5.90
2018-12-20T22:24:47.299Z,5.90
2018-12-20T22:27:15.459Z,6.00
2018-12-20T22:29:43.005Z,6.00
2018-12-20T22:32:10.940Z,6.00
2018-12-20T22:34:38.516Z,6.00
2018-12-20T22:37:05.918Z,6.00
2018-12-20T22:39:33.435Z,6.00
2018-12-20T22:42:01.798Z,6.00
2018-12-20T22:44:29.357Z,6.00
2018-12-20T22:46:57.366Z,6.00
2018-12-20T22:49:25.733Z,6.10
2018-12-20T22:51:53.294Z,6.10
2018-12-20T22:54:20.850Z,6.10
2018-12-20T22:56:48.361Z,6.10
2018-12-20T22:59:15.810Z,6.10
2018-12-20T23:01:43.289Z,6.10
2018-12-20T23:04:10.899Z,6.10
2018-12-20T23:06:38.357Z,6.10
2018-12-20T23:09:05.925Z,6.10
2018-12-20T23:11:33.378Z,6.20
2018-12-20T23:14:00.923Z,6.10
2018-12-20T23:16:28.482Z,6.10
2018-12-20T23:18:56.038Z,6.10
2018-12-20T23:21:23.503Z,6.10
2018-12-20T23:23:51.011Z,6.10
2018-12-20T23:26:19.526Z,6.10
2018-12-20T23:28:47.102Z,6.10
2018-12-20T23:31:14.657Z,6.10
2018-12-20T23:33:42.067Z,6.10
2018-12-20T23:36:09.482Z,6.10
2018-12-20T23:38:36.894Z,6.10
2018-12-20T23:41:04.934Z,6.10
2018-12-20T23:43:32.471Z,6.10
2018-12-20T23:46:00.506Z,6.10
2018-12-20T23:48:28.027Z,6.10
2018-12-20T23:50:55.558Z,6.10
2018-12-20T23:53:22.974Z,6.00
2018-12-20T23:55:50.465Z,6.10
2018-12-20T23:58:18.030Z,6.10
